Time;durP1;ratioP1;P1;durP2;ratioP2;P2;SDS_P1;SDS_P2;PMS_P1;PMS_P2;Temp;Humidity;BMP_temperature;BMP_pressure;BME280_temperature;BME280_humidity;BME280_pressure;Samples;Min_cycle;Max_cycle;Signal;HPM_P1;HPM_P2
2022/09/08 00:01:36;;;;;;;8.13;2.00;;;16.10;72.40;;;;;;4119553;28;20034;-87
2022/09/08 00:03:37;;;;;;;8.98;1.90;;;16.10;72.60;;;;;;4119165;28;20026;-87
2022/09/08 00:05:49;;;;;;;8.98;1.90;;;16.10;72.50;;;;;;4117548;28;20030;-87
2022/09/08 00:07:52;;;;;;;6.03;2.00;;;16.10;72.50;;;;;;4114919;28;20050;-86
2022/09/08 00:09:53;;;;;;;5.30;1.50;;;16.10;72.60;;;;;;4117696;28;20058;-86
2022/09/08 00:11:54;;;;;;;8.32;2.15;;;16.10;72.50;;;;;;4118287;28;20089;-86
2022/09/08 00:13:58;;;;;;;12.05;2.03;;;16.10;72.50;;;;;;4137110;28;20046;-85
2022/09/08 00:16:02;;;;;;;11.85;1.65;;;16.10;72.50;;;;;;4117210;28;20109;-85
2022/09/08 00:18:04;;;;;;;9.27;2.00;;;16.10;72.30;;;;;;4117088;28;20040;-87
2022/09/08 00:20:07;;;;;;;5.65;1.45;;;16.10;72.60;;;;;;4116860;28;20029;-86
2022/09/08 00:22:07;;;;;;;10.15;1.95;;;16.10;72.70;;;;;;4134550;28;20038;-86
2022/09/08 00:24:08;;;;;;;12.93;1.90;;;16.00;72.90;;;;;;4118824;28;20042;-86
2022/09/08 00:26:09;;;;;;;10.13;2.28;;;16.00;72.90;;;;;;4113784;28;20062;-86
2022/09/08 00:28:12;;;;;;;7.03;1.75;;;16.00;73.00;;;;;;4105351;28;20517;-86
2022/09/08 00:30:13;;;;;;;10.52;2.08;;;16.00;73.00;;;;;;4118404;28;20072;-86
2022/09/08 00:32:14;;;;;;;12.70;1.98;;;16.00;73.10;;;;;;4133204;28;20030;-86
2022/09/08 00:34:14;;;;;;;5.75;1.80;;;16.00;73.00;;;;;;4116838;28;20034;-85
2022/09/08 00:36:17;;;;;;;6.25;1.70;;;16.00;72.90;;;;;;4115168;28;20399;-85
2022/09/08 00:38:21;;;;;;;10.90;2.03;;;16.10;72.90;;;;;;4117271;28;20037;-85
2022/09/08 00:40:24;;;;;;;9.27;1.98;;;16.00;73.10;;;;;;4115738;28;20053;-86
2022/09/08 00:42:25;;;;;;;8.70;1.80;;;16.00;72.80;;;;;;4118219;28;20034;-85
2022/09/08 00:44:49;;;;;;;5.93;1.85;;;16.00;73.10;;;;;;4134654;28;20105;-86
2022/09/08 00:46:52;;;;;;;9.27;1.92;;;16.00;73.50;;;;;;4112902;28;20041;-85
2022/09/08 00:49:08;;;;;;;9.18;1.80;;;16.00;73.50;;;;;;4114718;28;20026;-85
2022/09/08 00:51:09;;;;;;;9.02;2.67;;;16.00;73.70;;;;;;4116743;28;20033;-84
2022/09/08 00:53:13;;;;;;;8.15;2.20;;;15.90;73.70;;;;;;4115219;28;20042;-84
2022/09/08 00:55:14;;;;;;;7.50;2.10;;;15.90;73.90;;;;;;4121339;28;20709;-85
2022/09/08 00:57:16;;;;;;;5.32;1.77;;;15.90;74.10;;;;;;4112907;28;20042;-85
2022/09/08 00:59:20;;;;;;;13.70;2.20;;;15.90;73.90;;;;;;4132052;28;20042;-85
2022/09/08 01:01:20;;;;;;;14.20;2.38;;;15.90;74.20;;;;;;4133686;28;20030;-84
2022/09/08 01:03:21;;;;;;;7.25;1.98;;;15.90;74.20;;;;;;4120511;28;20022;-85
2022/09/08 01:05:29;;;;;;;6.07;1.65;;;15.90;74.50;;;;;;4116805;28;20054;-85
2022/09/08 01:12:45;;;;;;;11.10;2.40;;;15.90;74.20;;;;;;4119650;28;20045;-85
2022/09/08 01:14:52;;;;;;;11.75;2.50;;;15.80;74.20;;;;;;4118979;28;20482;-85
2022/09/08 01:16:52;;;;;;;9.20;2.00;;;15.80;74.20;;;;;;4116802;28;20029;-86
2022/09/08 01:18:56;;;;;;;9.60;2.30;;;15.80;74.10;;;;;;4117729;28;20098;-86
2022/09/08 01:21:14;;;;;;;7.80;1.58;;;15.80;74.30;;;;;;4114951;28;20045;-85
2022/09/08 01:23:26;;;;;;;7.00;2.13;;;15.80;74.50;;;;;;4133010;28;20556;-85
2022/09/08 01:26:14;;;;;;;6.15;1.42;;;15.80;74.90;;;;;;4130058;28;20064;-85
2022/09/08 01:28:22;;;;;;;5.00;1.85;;;15.80;75.00;;;;;;4109434;28;20058;-85
2022/09/08 01:30:23;;;;;;;13.82;2.13;;;15.80;74.90;;;;;;4117274;28;20038;-85
2022/09/08 01:32:24;;;;;;;10.20;1.85;;;15.80;74.70;;;;;;4112740;28;20812;-84
2022/09/08 01:34:25;;;;;;;10.55;2.05;;;15.90;74.60;;;;;;4120487;28;20030;-84
2022/09/08 01:36:26;;;;;;;9.13;2.22;;;15.90;74.80;;;;;;4116352;28;20095;-84
2022/09/08 01:38:26;;;;;;;4.88;1.48;;;15.90;74.60;;;;;;4133702;28;20473;-85
2022/09/08 01:40:27;;;;;;;12.73;1.90;;;15.90;74.50;;;;;;4102671;28;20054;-86
2022/09/08 01:42:28;;;;;;;13.32;2.08;;;15.90;74.60;;;;;;4114174;28;20048;-84
2022/09/08 01:44:29;;;;;;;12.02;1.98;;;15.90;74.60;;;;;;4121121;28;20031;-86
2022/09/08 01:46:30;;;;;;;10.07;1.73;;;15.90;74.50;;;;;;4118513;28;20061;-86
2022/09/08 01:48:32;;;;;;;7.78;1.90;;;15.90;74.60;;;;;;4114166;28;20030;-87
2022/09/08 01:50:34;;;;;;;14.73;3.05;;;15.90;74.40;;;;;;4116211;28;20097;-85
2022/09/08 01:52:35;;;;;;;12.90;2.38;;;15.80;74.40;;;;;;4130124;28;20030;-86
2022/09/08 01:54:36;;;;;;;15.10;2.15;;;15.80;74.20;;;;;;4120106;28;20042;-85
2022/09/08 01:56:36;;;;;;;8.10;1.58;;;15.80;74.30;;;;;;4113262;28;20034;-85
2022/09/08 01:58:37;;;;;;;9.55;1.98;;;15.90;74.10;;;;;;4116663;28;20157;-86
2022/09/08 02:00:41;;;;;;;7.55;1.98;;;15.80;74.10;;;;;;4117010;28;20030;-86
2022/09/08 02:02:42;;;;;;;11.00;2.17;;;15.80;74.10;;;;;;4105192;28;20180;-86
2022/09/08 02:04:43;;;;;;;8.35;2.05;;;15.80;74.00;;;;;;4117054;28;20125;-86
2022/09/08 02:06:45;;;;;;;6.18;1.55;;;15.80;74.20;;;;;;4117719;28;20056;-86
2022/09/08 02:08:53;;;;;;;12.52;2.08;;;15.80;74.20;;;;;;4117213;28;20034;-86
2022/09/08 02:10:55;;;;;;;11.80;2.00;;;15.70;74.50;;;;;;4117621;28;20042;-86
2022/09/08 02:12:56;;;;;;;6.28;1.73;;;15.70;74.40;;;;;;4119522;28;20038;-86
2022/09/08 02:14:57;;;;;;;8.20;2.10;;;15.70;74.30;;;;;;4124618;28;20129;-86
2022/09/08 02:16:58;;;;;;;8.25;2.13;;;15.70;74.40;;;;;;4116663;28;20614;-86
2022/09/08 02:18:58;;;;;;;11.85;2.88;;;15.80;74.20;;;;;;4128112;28;20025;-85
2022/09/08 02:21:10;;;;;;;9.80;2.28;;;15.70;74.30;;;;;;4117505;28;20497;-85
2022/09/08 02:23:11;;;;;;;9.10;1.73;;;15.70;74.40;;;;;;4117476;28;20042;-87
2022/09/08 02:25:12;;;;;;;5.30;1.65;;;15.70;74.30;;;;;;4118270;28;20034;-86
2022/09/08 02:27:12;;;;;;;10.32;2.22;;;15.60;74.40;;;;;;4114627;28;20038;-85
2022/09/08 02:29:13;;;;;;;5.65;1.63;;;15.60;74.50;;;;;;4116951;28;20034;-86
2022/09/08 02:31:14;;;;;;;11.90;1.80;;;15.60;74.40;;;;;;4120129;28;20070;-87
2022/09/08 02:33:16;;;;;;;5.40;1.67;;;15.60;74.30;;;;;;4120824;28;20034;-86
2022/09/08 02:35:17;;;;;;;6.68;1.83;;;15.70;74.30;;;;;;4120224;28;20042;-86
2022/09/08 02:37:19;;;;;;;9.93;2.00;;;15.70;74.20;;;;;;4117888;28;20125;-86
2022/09/08 02:39:20;;;;;;;5.95;1.75;;;15.60;74.20;;;;;;4113779;28;20046;-84
2022/09/08 02:41:23;;;;;;;10.75;2.13;;;15.70;74.20;;;;;;4116900;28;20035;-84
2022/09/08 02:43:24;;;;;;;7.00;1.63;;;15.70;74.00;;;;;;4117080;28;20517;-85
2022/09/08 02:45:24;;;;;;;6.13;1.90;;;15.70;73.90;;;;;;4116296;28;20053;-84
2022/09/08 02:47:25;;;;;;;5.68;1.90;;;15.70;73.80;;;;;;4115437;28;20038;-85
2022/09/08 02:49:26;;;;;;;7.53;1.77;;;15.70;73.80;;;;;;4113655;28;20371;-86
2022/09/08 02:51:27;;;;;;;6.22;1.98;;;15.70;73.80;;;;;;4117848;28;20034;-85
2022/09/08 02:53:29;;;;;;;8.60;2.13;;;15.70;73.80;;;;;;4118087;28;20034;-84
2022/09/08 02:55:30;;;;;;;9.48;2.10;;;15.70;73.80;;;;;;4118055;28;20553;-86
2022/09/08 02:57:31;;;;;;;6.30;2.13;;;15.70;74.20;;;;;;4127424;28;20034;-87
2022/09/08 02:59:31;;;;;;;9.50;2.17;;;15.70;74.60;;;;;;4118763;28;20050;-85
2022/09/08 03:01:32;;;;;;;5.13;1.70;;;15.80;73.90;;;;;;4117628;28;20030;-86
2022/09/08 03:03:33;;;;;;;8.88;2.10;;;15.70;73.80;;;;;;4117594;28;20053;-85
2022/09/08 03:05:34;;;;;;;5.90;1.83;;;15.70;73.80;;;;;;4104205;28;20027;-85
2022/09/08 03:07:37;;;;;;;7.65;1.63;;;15.70;73.90;;;;;;4119299;28;20489;-86
2022/09/08 03:09:37;;;;;;;11.88;2.17;;;15.70;73.90;;;;;;4129946;28;20037;-87
2022/09/08 03:11:38;;;;;;;10.15;1.80;;;15.70;73.90;;;;;;4117957;28;20125;-85
2022/09/08 03:13:39;;;;;;;6.43;2.00;;;15.80;73.90;;;;;;4119333;28;20495;-86
2022/09/08 03:15:41;;;;;;;12.27;2.13;;;15.70;74.10;;;;;;4117752;28;20085;-86
2022/09/08 03:17:42;;;;;;;13.20;2.70;;;15.70;74.10;;;;;;4114996;28;20034;-85
2022/09/08 03:19:42;;;;;;;12.27;2.17;;;15.70;74.40;;;;;;4132810;28;20506;-87
2022/09/08 03:21:43;;;;;;;15.27;2.10;;;15.70;74.40;;;;;;4117102;28;20097;-85
2022/09/08 03:23:44;;;;;;;11.32;2.28;;;15.70;74.50;;;;;;4133447;28;20572;-84
2022/09/08 03:25:46;;;;;;;8.20;2.15;;;15.60;74.60;;;;;;4113084;28;20495;-85
2022/09/08 03:27:47;;;;;;;11.05;2.05;;;15.60;74.70;;;;;;4113444;28;20037;-85
2022/09/08 03:29:48;;;;;;;7.93;2.00;;;15.70;74.70;;;;;;4118865;28;20035;-86
2022/09/08 03:31:49;;;;;;;5.78;2.08;;;15.70;74.60;;;;;;4113097;28;20030;-85
2022/09/08 03:33:50;;;;;;;11.85;2.03;;;15.70;74.40;;;;;;4119972;28;20042;-85
2022/09/08 03:35:50;;;;;;;5.97;1.85;;;15.70;74.40;;;;;;4118102;28;20528;-85
2022/09/08 03:37:53;;;;;;;9.15;2.58;;;15.70;74.30;;;;;;4116748;28;20030;-85
2022/09/08 03:39:54;;;;;;;8.73;2.33;;;15.70;74.20;;;;;;4118136;28;20034;-85
2022/09/08 03:41:55;;;;;;;11.23;2.50;;;15.80;74.10;;;;;;4137938;28;20030;-83
2022/09/08 03:43:56;;;;;;;6.28;1.90;;;15.80;74.10;;;;;;4122788;28;20732;-83
2022/09/08 03:45:56;;;;;;;15.18;2.53;;;15.80;74.00;;;;;;4101161;28;20027;-82
2022/09/08 03:47:57;;;;;;;8.63;2.25;;;15.80;74.00;;;;;;4117252;28;21321;-84
2022/09/08 03:49:58;;;;;;;8.90;2.20;;;15.70;73.90;;;;;;4128048;28;20093;-84
2022/09/08 03:52:00;;;;;;;7.75;2.13;;;15.80;73.90;;;;;;4115976;28;20121;-84
2022/09/08 03:56:28;;;;;;;6.63;2.35;;;15.80;73.70;;;;;;4119338;28;20073;-84
2022/09/08 03:58:28;;;;;;;10.95;2.30;;;15.80;73.60;;;;;;4127276;28;20026;-83
2022/09/08 04:00:29;;;;;;;5.55;1.95;;;15.80;73.50;;;;;;4126366;28;20021;-84
2022/09/08 04:02:30;;;;;;;8.15;2.15;;;15.80;73.40;;;;;;4123426;28;20023;-84
2022/09/08 04:04:31;;;;;;;7.13;1.98;;;15.80;73.30;;;;;;4123961;28;20026;-83
2022/09/08 04:06:32;;;;;;;11.00;2.33;;;15.80;73.30;;;;;;4120438;28;20035;-83
2022/09/08 04:08:34;;;;;;;10.23;1.95;;;15.80;73.30;;;;;;4122532;28;20057;-85
2022/09/08 04:10:35;;;;;;;10.55;1.95;;;15.70;73.30;;;;;;4122623;28;20027;-83
2022/09/08 04:12:55;;;;;;;6.80;2.13;;;15.70;73.30;;;;;;4115438;28;20049;-84
2022/09/08 04:15:16;;;;;;;14.80;2.10;;;15.70;73.30;;;;;;4111556;28;20313;-83
2022/09/08 04:17:28;;;;;;;13.38;2.40;;;15.70;73.30;;;;;;4116937;28;20045;-84
2022/09/08 04:19:33;;;;;;;13.35;2.58;;;15.70;73.30;;;;;;4119831;28;20026;-83
2022/09/08 04:21:34;;;;;;;7.93;2.15;;;15.70;73.40;;;;;;4120650;28;20050;-84
2022/09/08 04:23:35;;;;;;;7.43;2.10;;;15.70;73.30;;;;;;4132804;28;20129;-84
2022/09/08 04:25:35;;;;;;;9.27;2.10;;;15.70;73.30;;;;;;4121967;28;20035;-83
2022/09/08 04:27:36;;;;;;;4.57;2.13;;;15.70;73.40;;;;;;4124351;28;20053;-83
2022/09/08 04:29:37;;;;;;;6.18;2.20;;;15.70;73.30;;;;;;4126660;28;20045;-83
2022/09/08 04:31:38;;;;;;;8.88;2.60;;;15.80;73.40;;;;;;4118736;28;20038;-84
2022/09/08 04:33:49;;;;;;;8.75;2.38;;;15.70;73.30;;;;;;4119159;28;20030;-84
2022/09/08 04:35:50;;;;;;;10.32;2.22;;;15.70;73.20;;;;;;4102691;28;20114;-84
2022/09/08 04:37:51;;;;;;;11.20;2.30;;;15.70;73.20;;;;;;4124721;28;20054;-83
2022/09/08 04:39:52;;;;;;;10.18;2.47;;;15.70;73.00;;;;;;4123339;28;20447;-82
2022/09/08 04:41:53;;;;;;;10.77;1.92;;;15.70;72.80;;;;;;4119452;28;20426;-84
2022/09/08 04:43:55;;;;;;;7.75;1.98;;;15.70;72.50;;;;;;4122735;28;20026;-83
2022/09/08 04:46:00;;;;;;;8.15;2.58;;;15.80;72.20;;;;;;4120210;28;20396;-84
2022/09/08 04:48:01;;;;;;;8.95;2.33;;;15.80;71.70;;;;;;4120152;28;20139;-84
2022/09/08 04:50:02;;;;;;;10.05;1.95;;;15.80;71.20;;;;;;4122206;28;20032;-84
2022/09/08 04:52:03;;;;;;;6.05;1.75;;;15.80;70.90;;;;;;4119628;28;20112;-84
2022/09/08 04:54:04;;;;;;;8.48;1.90;;;15.70;70.20;;;;;;4119782;28;20106;-83
2022/09/08 04:56:07;;;;;;;8.65;2.17;;;15.80;70.40;;;;;;4122532;28;20027;-82
2022/09/08 04:58:08;;;;;;;;;;;15.80;70.00;;;;;;4121529;28;20402;-82
2022/09/08 05:00:12;;;;;;;6.13;1.85;;;15.80;69.10;;;;;;4119716;28;19990;-84
2022/09/08 05:02:13;;;;;;;11.13;1.92;;;15.80;69.00;;;;;;4130172;28;20119;-83
2022/09/08 05:04:13;;;;;;;13.55;2.50;;;15.80;68.60;;;;;;4104375;28;20035;-83
2022/09/08 05:06:15;;;;;;;8.15;2.10;;;15.80;67.90;;;;;;4118349;28;20033;-84
2022/09/08 05:08:16;;;;;;;5.35;2.22;;;15.80;68.00;;;;;;4115303;28;20038;-84
2022/09/08 05:10:18;;;;;;;8.75;1.90;;;15.80;68.10;;;;;;4130630;28;20071;-84
2022/09/08 05:12:19;;;;;;;11.02;1.95;;;15.80;67.90;;;;;;4117068;28;21504;-84
2022/09/08 05:14:19;;;;;;;5.70;2.05;;;15.80;67.90;;;;;;4122820;28;20030;-84
2022/09/08 05:16:23;;;;;;;7.38;1.67;;;15.80;67.60;;;;;;4117949;28;20030;-83
2022/09/08 05:18:23;;;;;;;10.15;2.25;;;15.80;67.50;;;;;;4120839;28;20046;-84
2022/09/08 05:20:24;;;;;;;9.05;2.13;;;15.80;67.40;;;;;;4120720;28;20503;-83
2022/09/08 05:22:25;;;;;;;11.57;1.75;;;15.80;67.00;;;;;;4122184;28;20083;-84
2022/09/08 05:24:26;;;;;;;7.53;1.95;;;15.80;67.30;;;;;;4119959;28;20034;-83
2022/09/08 05:26:28;;;;;;;9.98;2.10;;;15.80;66.60;;;;;;4121494;28;20030;-84
2022/09/08 05:28:31;;;;;;;8.27;1.77;;;15.80;66.90;;;;;;4137342;28;20116;-83
2022/09/08 05:30:31;;;;;;;18.13;2.00;;;15.80;66.40;;;;;;4122877;28;20038;-84
2022/09/08 05:32:34;;;;;;;10.10;1.88;;;15.90;66.10;;;;;;4116388;28;20454;-84
2022/09/08 05:34:34;;;;;;;9.83;2.03;;;15.90;65.90;;;;;;4119837;28;20053;-84
2022/09/08 05:36:35;;;;;;;9.40;1.70;;;15.90;66.00;;;;;;4124417;28;21059;-83
2022/09/08 05:38:37;;;;;;;4.95;1.92;;;15.90;66.00;;;;;;4139331;28;20966;-83
2022/09/08 05:40:38;;;;;;;11.35;1.90;;;15.90;65.70;;;;;;4119109;28;20436;-83
2022/09/08 05:42:39;;;;;;;9.10;2.38;;;16.00;65.90;;;;;;4122428;28;20034;-83
2022/09/08 05:44:39;;;;;;;9.73;2.20;;;16.00;65.90;;;;;;4123384;28;20034;-83
2022/09/08 05:46:40;;;;;;;6.03;1.80;;;16.10;65.60;;;;;;4120932;28;21263;-83
2022/09/08 05:48:41;;;;;;;10.07;1.80;;;16.00;65.50;;;;;;4120304;28;20023;-84
2022/09/08 05:50:45;;;;;;;11.77;2.60;;;16.10;65.60;;;;;;4116426;28;20030;-83
2022/09/08 05:52:46;;;;;;;9.25;2.13;;;16.00;64.80;;;;;;4126146;28;20034;-84
2022/09/08 05:54:46;;;;;;;4.75;1.95;;;16.00;65.20;;;;;;4120907;28;20050;-83
2022/09/08 05:56:47;;;;;;;6.53;2.17;;;16.10;65.30;;;;;;4117679;28;20033;-84
2022/09/08 05:58:53;;;;;;;7.40;1.73;;;16.00;65.10;;;;;;4118104;28;20034;-83
2022/09/08 06:00:57;;;;;;;5.43;1.73;;;16.10;65.20;;;;;;4123714;28;20518;-82
2022/09/08 06:02:58;;;;;;;8.27;1.90;;;16.10;65.30;;;;;;4120313;28;20542;-84
2022/09/08 06:04:59;;;;;;;8.70;2.63;;;16.10;65.20;;;;;;4117323;28;20073;-84
2022/09/08 06:06:59;;;;;;;5.35;2.00;;;16.10;65.20;;;;;;4135036;28;20048;-84
2022/09/08 06:09:01;;;;;;;10.27;2.25;;;16.20;65.50;;;;;;4115524;28;20038;-82
2022/09/08 06:11:02;;;;;;;9.25;2.08;;;16.20;65.50;;;;;;4120272;28;20643;-83
2022/09/08 06:13:02;;;;;;;8.48;2.08;;;16.20;65.60;;;;;;4123595;28;20030;-83
2022/09/08 06:15:03;;;;;;;7.93;2.45;;;16.20;65.70;;;;;;4136216;28;20076;-83
2022/09/08 06:17:06;;;;;;;7.68;2.25;;;16.20;65.70;;;;;;4125493;28;20030;-84
2022/09/08 06:19:08;;;;;;;8.57;2.17;;;16.30;65.80;;;;;;4120476;28;20568;-83
2022/09/08 06:21:17;;;;;;;6.25;1.98;;;16.30;65.50;;;;;;4120939;28;20037;-83
2022/09/08 06:23:18;;;;;;;6.40;2.15;;;16.30;65.40;;;;;;4119552;28;20128;-83
2022/09/08 06:25:19;;;;;;;12.57;2.30;;;16.30;65.40;;;;;;4121496;28;20446;-83
2022/09/08 06:27:56;;;;;;;12.95;2.45;;;16.40;65.40;;;;;;4125763;28;20034;-83
2022/09/08 06:30:11;;;;;;;7.68;2.22;;;16.30;64.60;;;;;;4124892;28;20041;-83
2022/09/08 06:32:33;;;;;;;4.20;1.70;;;16.40;65.00;;;;;;4133960;28;20119;-83
2022/09/08 06:34:41;;;;;;;6.97;2.28;;;16.40;65.20;;;;;;4121523;28;20030;-85
2022/09/08 06:36:49;;;;;;;8.20;2.08;;;16.40;65.10;;;;;;4120041;28;20033;-84
2022/09/08 06:38:57;;;;;;;10.55;2.17;;;16.40;65.40;;;;;;4125288;28;20026;-85
2022/09/08 06:41:20;;;;;;;11.25;2.53;;;16.50;65.60;;;;;;4123316;28;20018;-85
2022/09/08 06:43:32;;;;;;;12.90;2.83;;;16.40;65.30;;;;;;4123910;28;20446;-85
2022/09/08 06:45:42;;;;;;;4.70;1.88;;;16.40;66.40;;;;;;4121476;28;20077;-84
2022/09/08 06:47:49;;;;;;;18.27;2.95;;;16.40;65.80;;;;;;4120440;28;20118;-85
2022/09/08 06:49:51;;;;;;;6.88;2.40;;;16.50;65.90;;;;;;4120487;28;20034;-85
2022/09/08 06:52:00;;;;;;;5.15;2.10;;;16.40;65.60;;;;;;4119912;28;20026;-85
2022/09/08 06:54:21;;;;;;;8.60;2.13;;;16.40;66.00;;;;;;4122451;28;20020;-85
2022/09/08 06:56:51;;;;;;;12.95;2.80;;;16.40;65.30;;;;;;4120511;28;20050;-85
2022/09/08 06:58:59;;;;;;;11.25;2.42;;;16.40;65.60;;;;;;4133726;28;20026;-84
2022/09/08 07:01:23;;;;;;;9.13;2.15;;;16.40;65.30;;;;;;4119975;28;20094;-84
2022/09/08 07:03:33;;;;;;;;;;;16.40;65.40;;;;;;4134632;28;20037;-85
2022/09/08 07:06:08;;;;;;;11.00;2.42;;;16.50;65.50;;;;;;4121307;28;20001;-85
2022/09/08 07:08:47;;;;;;;11.40;2.63;;;16.50;65.50;;;;;;4134241;28;20035;-85
2022/09/08 07:11:32;;;;;;;7.43;2.47;;;16.40;65.20;;;;;;4126702;28;20031;-84
2022/09/08 07:14:11;;;;;;;5.15;2.13;;;16.60;65.00;;;;;;4125069;28;20480;-85
2022/09/08 07:17:05;;;;;;;5.82;2.40;;;16.60;65.10;;;;;;4126725;28;20037;-84
2022/09/08 07:19:46;;;;;;;9.98;2.25;;;16.60;65.00;;;;;;4107368;28;20031;-85
2022/09/08 07:22:25;;;;;;;5.38;2.10;;;16.70;65.10;;;;;;4123671;28;20031;-84
2022/09/08 07:24:43;;;;;;;11.30;2.80;;;16.80;65.50;;;;;;4124114;28;20108;-85
2022/09/08 07:27:10;;;;;;;16.20;2.38;;;16.70;66.00;;;;;;4124207;28;20066;-84
2022/09/08 07:29:43;;;;;;;9.68;2.40;;;16.80;66.10;;;;;;4121805;28;20034;-83
2022/09/08 07:31:49;;;;;;;10.57;2.20;;;16.80;65.40;;;;;;4125846;28;20036;-84
2022/09/08 07:33:57;;;;;;;12.85;3.30;;;16.80;65.50;;;;;;4126391;28;20112;-84
2022/09/08 07:36:03;;;;;;;10.60;2.00;;;16.90;65.50;;;;;;4123135;28;20030;-85
2022/09/08 07:38:10;;;;;;;12.57;2.78;;;16.90;65.30;;;;;;4126976;28;20478;-83
2022/09/08 07:40:16;;;;;;;6.00;2.10;;;17.00;64.70;;;;;;4124874;28;20063;-84
2022/09/08 07:42:17;;;;;;;13.10;2.53;;;17.00;63.70;;;;;;4124063;28;20038;-84
2022/09/08 07:44:19;;;;;;;10.90;2.55;;;17.10;64.00;;;;;;4124949;28;20132;-83
2022/09/08 07:46:37;;;;;;;9.65;2.28;;;17.10;63.20;;;;;;4134739;28;20030;-82
2022/09/08 07:48:55;;;;;;;11.00;1.90;;;17.20;63.10;;;;;;4126170;28;20081;-84
2022/09/08 07:51:16;;;;;;;7.78;1.80;;;17.30;63.10;;;;;;4126637;28;20053;-84
2022/09/08 07:53:37;;;;;;;6.57;1.90;;;17.30;62.00;;;;;;4130860;28;20061;-81
2022/09/08 07:55:41;;;;;;;15.43;1.88;;;17.20;60.90;;;;;;4125942;28;20054;-84
2022/09/08 07:58:14;;;;;;;5.32;1.98;;;17.30;60.80;;;;;;4129295;28;20114;-84
2022/09/08 08:00:19;;;;;;;9.85;2.22;;;17.30;60.50;;;;;;4127740;28;20123;-83
2022/09/08 08:02:35;;;;;;;5.38;2.10;;;17.20;60.10;;;;;;4132063;28;20066;-84
2022/09/08 08:04:56;;;;;;;16.10;3.40;;;17.20;60.20;;;;;;4131309;28;20023;-84
2022/09/08 08:07:01;;;;;;;7.03;1.77;;;17.20;60.40;;;;;;4137619;28;20038;-84
2022/09/08 08:09:21;;;;;;;9.68;2.17;;;17.00;60.30;;;;;;4123254;28;20450;-84
2022/09/08 08:11:42;;;;;;;13.60;3.10;;;17.10;60.60;;;;;;4124858;28;20031;-84
2022/09/08 08:13:54;;;;;;;16.65;3.00;;;17.00;60.00;;;;;;4145249;28;20135;-84
2022/09/08 08:16:07;;;;;;;7.60;2.00;;;17.00;59.90;;;;;;4137353;28;20036;-84
2022/09/08 08:18:17;;;;;;;10.73;2.00;;;17.00;60.20;;;;;;4127969;28;20040;-83
2022/09/08 08:20:23;;;;;;;6.72;2.20;;;17.00;60.30;;;;;;4124400;28;20156;-83
2022/09/08 08:22:39;;;;;;;12.82;2.10;;;17.10;60.50;;;;;;4136163;28;20033;-83
2022/09/08 08:25:18;;;;;;;13.02;2.35;;;17.10;60.70;;;;;;4125081;28;20093;-83
2022/09/08 08:27:35;;;;;;;6.90;2.17;;;17.20;60.40;;;;;;4104347;28;20039;-84
2022/09/08 08:30:19;;;;;;;9.75;3.00;;;17.10;60.00;;;;;;4108558;28;20522;-83
2022/09/08 08:32:27;;;;;;;10.20;2.45;;;17.00;59.10;;;;;;4116018;28;20042;-84
2022/09/08 08:34:32;;;;;;;15.80;2.55;;;17.10;59.10;;;;;;4128536;28;20030;-83
2022/09/08 08:36:41;;;;;;;10.93;2.10;;;17.00;58.90;;;;;;4124336;28;20034;-84
2022/09/08 08:39:05;;;;;;;11.23;2.38;;;17.10;59.50;;;;;;4125081;28;20026;-84
2022/09/08 08:41:22;;;;;;;7.88;2.03;;;17.10;59.30;;;;;;4122383;28;20031;-83
2022/09/08 08:43:41;;;;;;;6.28;2.40;;;17.10;59.50;;;;;;4135818;28;20041;-83
2022/09/08 08:46:01;;;;;;;6.95;1.92;;;17.10;59.20;;;;;;4126060;28;20085;-83
2022/09/08 08:48:14;;;;;;;4.28;2.03;;;17.10;59.10;;;;;;4133798;28;20034;-82
2022/09/08 08:50:18;;;;;;;11.63;2.60;;;17.10;59.20;;;;;;4135930;28;20045;-84
2022/09/08 08:52:40;;;;;;;7.63;2.30;;;17.10;58.80;;;;;;4121914;28;20297;-84
2022/09/08 08:54:43;;;;;;;7.28;2.30;;;17.00;58.70;;;;;;4135863;28;20030;-84
2022/09/08 08:57:26;;;;;;;4.93;1.98;;;17.10;59.10;;;;;;4121992;28;20031;-84
2022/09/08 08:59:58;;;;;;;6.60;2.35;;;17.10;58.40;;;;;;4120775;28;20042;-84
2022/09/08 09:02:02;;;;;;;5.28;2.03;;;17.10;58.60;;;;;;4121490;28;20029;-84
2022/09/08 09:04:14;;;;;;;7.63;2.22;;;17.20;58.60;;;;;;4122171;28;20034;-84
2022/09/08 09:06:29;;;;;;;12.48;2.80;;;17.20;58.40;;;;;;4120857;28;20094;-84
2022/09/08 09:08:39;;;;;;;5.50;2.08;;;17.10;58.00;;;;;;4136455;28;20054;-84
2022/09/08 09:11:12;;;;;;;8.82;2.47;;;17.10;57.80;;;;;;4120424;28;20057;-84
2022/09/08 09:13:45;;;;;;;10.63;2.22;;;17.20;58.00;;;;;;4057918;29;20036;-85
2022/09/08 09:16:10;;;;;;;8.57;2.30;;;17.00;57.70;;;;;;4127169;28;20018;-85
2022/09/08 09:18:35;;;;;;;7.20;2.00;;;17.10;57.50;;;;;;4147604;28;20025;-85
2022/09/08 09:20:51;;;;;;;9.30;2.30;;;17.00;56.40;;;;;;4124890;28;20027;-84
2022/09/08 09:22:55;;;;;;;7.50;1.80;;;17.00;56.10;;;;;;4128122;28;20038;-83
2022/09/08 09:25:20;;;;;;;8.20;1.85;;;17.00;56.40;;;;;;4121427;28;20038;-85
2022/09/08 09:27:38;;;;;;;11.02;2.10;;;17.00;56.50;;;;;;4118782;28;20038;-84
2022/09/08 09:29:41;;;;;;;8.30;2.00;;;16.90;55.60;;;;;;4127017;28;20114;-83
2022/09/08 09:32:04;;;;;;;9.35;2.47;;;17.00;56.20;;;;;;4123814;28;20037;-84
2022/09/08 09:34:05;;;;;;;6.78;1.98;;;17.00;55.60;;;;;;4126891;28;20015;-84
2022/09/08 09:36:35;;;;;;;7.78;1.77;;;17.10;56.00;;;;;;4127207;28;20092;-83
2022/09/08 09:39:02;;;;;;;7.57;1.85;;;17.10;55.60;;;;;;4076073;29;20032;-84
2022/09/08 09:41:33;;;;;;;4.97;1.45;;;17.10;55.80;;;;;;4116619;28;20045;-82
2022/09/08 09:43:36;;;;;;;8.23;1.70;;;17.10;55.90;;;;;;4119926;28;20046;-84
2022/09/08 09:46:08;;;;;;;9.10;1.70;;;17.20;55.90;;;;;;4121029;28;20085;-84
2022/09/08 09:48:14;;;;;;;10.32;1.90;;;17.20;55.40;;;;;;4118503;28;20039;-84
2022/09/08 09:50:44;;;;;;;5.63;1.65;;;17.10;55.00;;;;;;4119308;28;20382;-84
2022/09/08 09:52:50;;;;;;;9.30;1.83;;;17.10;55.80;;;;;;4106982;28;20035;-83
2022/09/08 09:55:28;;;;;;;7.97;2.03;;;17.20;55.90;;;;;;4118863;28;20046;-84
2022/09/08 09:57:49;;;;;;;8.32;1.65;;;17.10;55.10;;;;;;4117432;28;20033;-83
2022/09/08 10:00:08;;;;;;;11.73;1.73;;;17.10;54.80;;;;;;4118580;28;20456;-84
2022/09/08 10:02:31;;;;;;;9.32;1.92;;;17.10;54.90;;;;;;4124889;28;20124;-83
2022/09/08 10:04:56;;;;;;;9.88;2.35;;;17.10;54.30;;;;;;4119952;28;20053;-85
2022/09/08 10:07:21;;;;;;;10.40;1.73;;;17.10;53.50;;;;;;4117274;28;20101;-83
2022/09/08 10:09:49;;;;;;;9.90;1.75;;;17.20;53.40;;;;;;4119208;28;20026;-84
2022/09/08 10:12:21;;;;;;;25.42;2.42;;;17.20;53.00;;;;;;4121336;28;20730;-84
2022/09/08 10:14:59;;;;;;;11.07;1.67;;;17.30;52.50;;;;;;4123146;28;20037;-84
2022/09/08 10:17:38;;;;;;;8.77;1.73;;;17.20;52.30;;;;;;4143407;28;20022;-85
2022/09/08 10:20:12;;;;;;;5.47;1.42;;;17.20;52.60;;;;;;4133132;28;20109;-84
2022/09/08 10:22:24;;;;;;;12.05;1.83;;;17.30;52.80;;;;;;4122720;28;20030;-84
2022/09/08 10:24:56;;;;;;;5.20;1.60;;;17.30;53.00;;;;;;4129597;28;20040;-85
2022/09/08 10:27:12;;;;;;;6.75;1.83;;;17.40;52.80;;;;;;4132556;28;20061;-82
2022/09/08 10:29:31;;;;;;;10.27;2.15;;;17.40;52.40;;;;;;4121980;28;20145;-84
2022/09/08 10:32:14;;;;;;;11.68;2.00;;;17.40;52.70;;;;;;4119870;28;20518;-84
2022/09/08 10:34:36;;;;;;;13.70;2.30;;;17.40;52.80;;;;;;4120010;28;20427;-84
2022/09/08 10:36:59;;;;;;;8.55;1.65;;;17.40;52.60;;;;;;4118304;28;20066;-84
2022/09/08 10:39:05;;;;;;;11.73;2.22;;;17.50;52.80;;;;;;4119719;28;20037;-83
2022/09/08 10:41:45;;;;;;;19.83;2.00;;;17.40;52.70;;;;;;4119797;28;20031;-84
2022/09/08 10:44:08;;;;;;;9.57;1.83;;;17.40;53.90;;;;;;4119562;28;20030;-85
2022/09/08 10:46:27;;;;;;;6.90;1.80;;;17.60;54.00;;;;;;4118524;28;20064;-83
2022/09/08 10:48:52;;;;;;;8.27;2.35;;;17.50;54.40;;;;;;4116599;28;20315;-83
2022/09/08 10:51:36;;;;;;;7.80;1.67;;;17.40;55.30;;;;;;4124182;28;20045;-83
2022/09/08 10:53:49;;;;;;;7.70;1.60;;;17.40;56.10;;;;;;4137163;28;20042;-84
2022/09/08 10:56:28;;;;;;;7.10;2.47;;;17.30;56.40;;;;;;4136874;28;20751;-84
2022/09/08 10:58:38;;;;;;;6.80;1.90;;;17.20;56.70;;;;;;4076878;29;20138;-83
2022/09/08 11:01:27;;;;;;;7.72;1.60;;;17.10;56.70;;;;;;4087710;28;20032;-84
2022/09/08 11:03:48;;;;;;;10.90;2.42;;;17.00;56.90;;;;;;4075682;28;20035;-83
2022/09/08 11:06:05;;;;;;;11.10;2.00;;;16.90;56.60;;;;;;4135249;28;20659;-83
2022/09/08 11:08:38;;;;;;;13.32;2.13;;;16.90;56.60;;;;;;4126495;28;20030;-83
2022/09/08 11:10:38;;;;;;;16.67;3.20;;;16.80;57.30;;;;;;4111113;28;20058;-82
2022/09/08 11:12:51;;;;;;;11.90;1.88;;;16.80;57.80;;;;;;4121545;28;20528;-82
2022/09/08 11:15:04;;;;;;;5.25;1.88;;;16.70;58.10;;;;;;4121785;28;20029;-83
2022/09/08 11:17:13;;;;;;;6.53;1.70;;;16.80;58.40;;;;;;4120738;28;20051;-82
2022/09/08 11:19:40;;;;;;;8.52;2.60;;;16.80;59.20;;;;;;4126255;28;20038;-85